Time;durP1;ratioP1;P1;durP2;ratioP2;P2;SDS_P1;SDS_P2;PMS_P1;PMS_P2;Temp;Humidity;BMP_temperature;BMP_pressure;BME280_temperature;BME280_humidity;BME280_pressure;Samples;Min_cycle;Max_cycle;Signal;HPM_P1;HPM_P2
2023/06/10 00:01:58;;;;;;;4.55;3.30;;;;;;;;;;4944173;28;20048;-47
2023/06/10 00:04:25;;;;;;;6.65;3.90;;;;;;;;;;4942437;28;20027;-49
2023/06/10 00:06:50;;;;;;;5.05;3.25;;;;;;;;;;4943808;28;20035;-43
2023/06/10 00:09:16;;;;;;;4.88;3.15;;;;;;;;;;4946439;28;20039;-44
2023/06/10 00:11:42;;;;;;;4.45;3.58;;;;;;;;;;4947728;28;20039;-48
2023/06/10 00:14:07;;;;;;;8.80;3.40;;;;;;;;;;4945804;28;20084;-48
2023/06/10 00:16:33;;;;;;;4.88;3.40;;;;;;;;;;4949760;28;20410;-48
2023/06/10 00:19:01;;;;;;;7.10;3.33;;;;;;;;;;4950008;28;20110;-44
2023/06/10 00:21:39;;;;;;;7.07;3.50;;;;;;;;;;4939768;28;20039;-47
2023/06/10 00:24:14;;;;;;;3.50;3.13;;;;;;;;;;4940375;28;20401;-45
2023/06/10 00:26:40;;;;;;;4.07;3.42;;;;;;;;;;4947063;28;20039;-50
2023/06/10 00:29:06;;;;;;;6.30;3.22;;;;;;;;;;4950106;28;20468;-47
2023/06/10 00:31:33;;;;;;;4.88;3.40;;;;;;;;;;4946303;28;20079;-44
2023/06/10 00:33:58;;;;;;;5.47;3.58;;;;;;;;;;4941930;28;20039;-49
2023/06/10 00:36:24;;;;;;;5.38;3.45;;;;;;;;;;4946172;28;20031;-48
2023/06/10 00:38:49;;;;;;;3.65;3.22;;;;;;;;;;4948988;28;20039;-48
2023/06/10 00:41:15;;;;;;;5.22;3.40;;;;;;;;;;4928829;29;20027;-46
2023/06/10 00:43:40;;;;;;;5.10;3.47;;;;;;;;;;4945421;28;20039;-49
2023/06/10 00:46:06;;;;;;;4.03;3.05;;;;;;;;;;4943893;28;20475;-48
2023/06/10 00:48:32;;;;;;;6.43;3.92;;;;;;;;;;4943600;28;20040;-48
2023/06/10 00:50:59;;;;;;;3.85;3.33;;;;;;;;;;4943347;28;20047;-42
2023/06/10 00:53:25;;;;;;;6.82;3.22;;;;;;;;;;4946211;28;20043;-47
2023/06/10 00:55:50;;;;;;;6.55;3.63;;;;;;;;;;4947483;28;20023;-47
2023/06/10 00:58:16;;;;;;;5.65;3.40;;;;;;;;;;4946232;28;20086;-48
2023/06/10 01:00:41;;;;;;;4.55;3.60;;;;;;;;;;4948803;28;20122;-44
2023/06/10 01:03:07;;;;;;;5.80;3.20;;;;;;;;;;4946197;28;20039;-43
2023/06/10 01:05:34;;;;;;;11.93;4.20;;;;;;;;;;4944472;28;20034;-45
2023/06/10 01:08:18;;;;;;;3.92;3.35;;;;;;;;;;4944047;28;20134;-44
2023/06/10 01:10:50;;;;;;;4.57;3.55;;;;;;;;;;4944367;28;20027;-45
2023/06/10 01:13:17;;;;;;;5.00;3.78;;;;;;;;;;4943066;28;20043;-46
2023/06/10 01:15:43;;;;;;;8.38;3.88;;;;;;;;;;4945343;28;20023;-44
2023/06/10 01:18:14;;;;;;;8.50;3.45;;;;;;;;;;4944517;28;20043;-48
2023/06/10 01:20:40;;;;;;;8.10;3.43;;;;;;;;;;4947236;28;20042;-44
2023/06/10 01:23:06;;;;;;;11.38;3.47;;;;;;;;;;4943064;28;20863;-46
2023/06/10 01:25:33;;;;;;;5.15;3.42;;;;;;;;;;4944091;28;20023;-46
2023/06/10 01:28:03;;;;;;;8.07;4.18;;;;;;;;;;4945223;28;20043;-47
2023/06/10 01:30:37;;;;;;;9.23;3.70;;;;;;;;;;4944063;28;20035;-48
2023/06/10 01:33:05;;;;;;;9.23;3.80;;;;;;;;;;4941265;28;20056;-46
2023/06/10 01:35:31;;;;;;;7.40;3.30;;;;;;;;;;4945153;28;20023;-47
2023/06/10 01:37:58;;;;;;;7.15;3.72;;;;;;;;;;4948504;28;20062;-45
2023/06/10 01:40:24;;;;;;;7.82;3.42;;;;;;;;;;4945908;28;20027;-50
2023/06/10 01:42:52;;;;;;;5.00;3.42;;;;;;;;;;4946726;28;20066;-46
2023/06/10 01:45:17;;;;;;;9.20;3.78;;;;;;;;;;4946528;28;20074;-44
2023/06/10 01:47:42;;;;;;;5.05;3.08;;;;;;;;;;4945341;28;20074;-44
2023/06/10 01:50:08;;;;;;;12.27;3.72;;;;;;;;;;4941015;28;20032;-48
2023/06/10 01:52:33;;;;;;;4.85;3.50;;;;;;;;;;4945692;28;20090;-45
2023/06/10 01:55:00;;;;;;;5.78;3.83;;;;;;;;;;4942038;28;20094;-50
2023/06/10 01:57:25;;;;;;;5.40;3.25;;;;;;;;;;4944928;28;20051;-47
2023/06/10 01:59:51;;;;;;;4.50;3.30;;;;;;;;;;4946115;28;20042;-46
2023/06/10 02:02:16;;;;;;;10.18;3.78;;;;;;;;;;4941547;28;20062;-46
2023/06/10 02:04:41;;;;;;;5.80;3.35;;;;;;;;;;4945334;28;20037;-45
2023/06/10 02:07:07;;;;;;;6.30;3.65;;;;;;;;;;4945375;28;20039;-43
2023/06/10 02:09:34;;;;;;;5.60;3.50;;;;;;;;;;4947307;28;20035;-44
2023/06/10 02:12:01;;;;;;;4.55;4.07;;;;;;;;;;4945673;28;20042;-44
2023/06/10 02:14:26;;;;;;;7.28;3.25;;;;;;;;;;4944203;28;20043;-44
2023/06/10 02:16:56;;;;;;;6.20;3.58;;;;;;;;;;4945764;28;20039;-49
2023/06/10 02:19:22;;;;;;;11.35;3.70;;;;;;;;;;4948038;28;20487;-47
2023/06/10 02:21:47;;;;;;;6.70;3.53;;;;;;;;;;4944574;28;20562;-50
2023/06/10 02:24:13;;;;;;;5.22;3.40;;;;;;;;;;4948178;28;20035;-44
2023/06/10 02:26:38;;;;;;;7.22;3.78;;;;;;;;;;4941145;28;20724;-46
2023/06/10 02:29:03;;;;;;;7.13;3.83;;;;;;;;;;4945793;28;20035;-44
2023/06/10 02:31:29;;;;;;;7.70;3.50;;;;;;;;;;4943056;28;20441;-44
2023/06/10 02:33:55;;;;;;;5.50;3.35;;;;;;;;;;4942358;28;20031;-44
2023/06/10 02:36:21;;;;;;;5.63;3.10;;;;;;;;;;4944702;28;20048;-44
2023/06/10 02:38:47;;;;;;;5.03;3.97;;;;;;;;;;4943772;28;20037;-48
2023/06/10 02:41:12;;;;;;;7.78;3.38;;;;;;;;;;4939894;28;20035;-46
2023/06/10 02:43:37;;;;;;;10.15;3.53;;;;;;;;;;4944183;28;20024;-43
2023/06/10 02:46:03;;;;;;;7.10;3.42;;;;;;;;;;4947304;28;20366;-43
2023/06/10 02:48:28;;;;;;;8.57;3.75;;;;;;;;;;4941038;28;20081;-46
2023/06/10 02:50:55;;;;;;;9.80;3.65;;;;;;;;;;4945210;28;20047;-48
2023/06/10 02:53:21;;;;;;;3.58;3.17;;;;;;;;;;4942381;28;20063;-51
2023/06/10 02:55:46;;;;;;;4.95;3.15;;;;;;;;;;4942176;28;20054;-49
2023/06/10 02:58:11;;;;;;;6.93;3.60;;;;;;;;;;4944613;28;20102;-46
2023/06/10 03:00:37;;;;;;;4.35;3.38;;;;;;;;;;4939455;28;20477;-50
2023/06/10 03:03:03;;;;;;;5.78;3.88;;;;;;;;;;4939157;28;20067;-44
2023/06/10 03:05:32;;;;;;;9.65;3.63;;;;;;;;;;4944408;28;20027;-43
2023/06/10 03:07:58;;;;;;;4.55;3.22;;;;;;;;;;4944533;28;20058;-45
2023/06/10 03:10:23;;;;;;;7.35;3.75;;;;;;;;;;4946245;28;20480;-43
2023/06/10 03:12:48;;;;;;;7.25;3.35;;;;;;;;;;4941887;28;20106;-47
2023/06/10 03:15:15;;;;;;;6.72;3.55;;;;;;;;;;4945580;28;20038;-44
2023/06/10 03:17:41;;;;;;;5.28;3.78;;;;;;;;;;4940698;28;20090;-47
2023/06/10 03:20:10;;;;;;;6.03;3.58;;;;;;;;;;4943577;28;20027;-46
2023/06/10 03:22:35;;;;;;;6.15;3.70;;;;;;;;;;4946578;28;20031;-44
2023/06/10 03:25:01;;;;;;;9.82;3.55;;;;;;;;;;4941124;28;20034;-48
2023/06/10 03:27:26;;;;;;;5.70;3.42;;;;;;;;;;4944557;28;20035;-46
2023/06/10 03:29:52;;;;;;;11.73;3.42;;;;;;;;;;4944406;28;20067;-45
2023/06/10 03:32:17;;;;;;;6.05;3.55;;;;;;;;;;4942201;28;20519;-47
2023/06/10 03:34:44;;;;;;;5.20;3.35;;;;;;;;;;4942838;28;20037;-45
2023/06/10 03:37:10;;;;;;;5.95;3.42;;;;;;;;;;4945120;28;20044;-51
2023/06/10 03:39:35;;;;;;;7.25;4.18;;;;;;;;;;4938672;28;20073;-51
2023/06/10 03:42:01;;;;;;;10.82;3.70;;;;;;;;;;4943348;28;20040;-46
2023/06/10 03:44:26;;;;;;;8.13;3.80;;;;;;;;;;4947906;28;20081;-44
2023/06/10 03:46:52;;;;;;;5.22;3.78;;;;;;;;;;4949594;28;20039;-45
2023/06/10 03:49:17;;;;;;;5.13;3.85;;;;;;;;;;4946757;28;20039;-43
2023/06/10 03:51:43;;;;;;;5.00;3.88;;;;;;;;;;4943542;28;20063;-44
2023/06/10 03:54:08;;;;;;;6.70;3.88;;;;;;;;;;4943782;28;20091;-47
2023/06/10 03:56:35;;;;;;;5.13;4.07;;;;;;;;;;4940399;28;20046;-47
2023/06/10 03:59:00;;;;;;;4.28;3.83;;;;;;;;;;4946000;28;20402;-45
2023/06/10 04:01:26;;;;;;;7.43;3.90;;;;;;;;;;4945108;28;20044;-44
2023/06/10 04:03:53;;;;;;;3.92;3.53;;;;;;;;;;4943354;28;20038;-44
2023/06/10 04:06:19;;;;;;;6.15;3.58;;;;;;;;;;4943663;28;20027;-47
2023/06/10 04:08:44;;;;;;;5.10;3.53;;;;;;;;;;4948949;28;20023;-49
2023/06/10 04:11:10;;;;;;;6.25;4.22;;;;;;;;;;4947910;28;20027;-44
2023/06/10 04:13:36;;;;;;;5.70;3.72;;;;;;;;;;4947834;28;20093;-46
2023/06/10 04:16:02;;;;;;;6.45;3.70;;;;;;;;;;4947546;28;20424;-48
2023/06/10 04:18:27;;;;;;;5.90;4.03;;;;;;;;;;4942717;28;20039;-49
2023/06/10 04:20:53;;;;;;;5.70;4.10;;;;;;;;;;4947995;28;20063;-51
2023/06/10 04:23:18;;;;;;;6.85;4.40;;;;;;;;;;4943129;28;20583;-46
2023/06/10 04:25:44;;;;;;;4.97;4.00;;;;;;;;;;4950266;28;20023;-44
2023/06/10 04:28:09;;;;;;;6.53;3.90;;;;;;;;;;4943683;28;20539;-49
2023/06/10 04:30:35;;;;;;;5.93;4.03;;;;;;;;;;4947470;28;20027;-44
2023/06/10 04:33:00;;;;;;;6.90;4.10;;;;;;;;;;4945655;28;20031;-44
2023/06/10 04:35:27;;;;;;;4.45;3.97;;;;;;;;;;4948112;28;20066;-48
2023/06/10 04:37:53;;;;;;;4.50;3.47;;;;;;;;;;4943280;28;20035;-45
2023/06/10 04:40:19;;;;;;;6.55;3.70;;;;;;;;;;4944569;28;20083;-47
2023/06/10 04:42:44;;;;;;;7.88;3.80;;;;;;;;;;4941153;28;20047;-45
2023/06/10 04:45:10;;;;;;;8.75;4.18;;;;;;;;;;4944822;28;20543;-46
2023/06/10 04:47:35;;;;;;;12.73;3.85;;;;;;;;;;4940694;28;20090;-45
2023/06/10 04:50:02;;;;;;;5.75;3.60;;;;;;;;;;4944888;28;20537;-44
2023/06/10 04:52:27;;;;;;;8.07;4.20;;;;;;;;;;4941608;28;20106;-48
2023/06/10 04:54:53;;;;;;;5.30;3.53;;;;;;;;;;4940468;28;20027;-49
2023/06/10 04:57:20;;;;;;;7.97;4.00;;;;;;;;;;4946260;28;20039;-51
2023/06/10 04:59:45;;;;;;;4.20;3.75;;;;;;;;;;4945695;28;20785;-50
2023/06/10 05:02:11;;;;;;;9.07;4.28;;;;;;;;;;4945940;28;20047;-49
2023/06/10 05:04:36;;;;;;;5.30;4.00;;;;;;;;;;4945055;28;20040;-49
2023/06/10 05:07:01;;;;;;;9.32;3.90;;;;;;;;;;4944136;28;20027;-45
2023/06/10 05:09:27;;;;;;;7.63;4.30;;;;;;;;;;4944316;28;20028;-44
2023/06/10 05:11:53;;;;;;;10.75;5.55;;;;;;;;;;4944342;28;20051;-43
2023/06/10 05:14:20;;;;;;;4.80;4.00;;;;;;;;;;4949618;28;21667;-44
2023/06/10 05:16:46;;;;;;;7.53;3.88;;;;;;;;;;4947375;28;20032;-44
2023/06/10 05:19:11;;;;;;;9.30;4.53;;;;;;;;;;4946868;28;20093;-45
2023/06/10 05:21:37;;;;;;;9.90;3.95;;;;;;;;;;4946182;28;20484;-46
2023/06/10 05:24:02;;;;;;;5.00;3.78;;;;;;;;;;4942985;28;20059;-43
2023/06/10 05:26:28;;;;;;;5.80;3.95;;;;;;;;;;4939788;28;20058;-46
2023/06/10 05:28:54;;;;;;;5.07;3.65;;;;;;;;;;4945180;28;20042;-52
2023/06/10 05:31:20;;;;;;;7.35;3.97;;;;;;;;;;4947386;28;20039;-48
2023/06/10 05:33:45;;;;;;;7.88;4.03;;;;;;;;;;4945013;28;20397;-49
2023/06/10 05:36:10;;;;;;;4.68;3.78;;;;;;;;;;4949299;28;20035;-51
2023/06/10 05:38:36;;;;;;;12.10;4.60;;;;;;;;;;4946452;28;20550;-47
2023/06/10 05:41:01;;;;;;;8.95;3.88;;;;;;;;;;4945219;28;20028;-41
2023/06/10 05:43:26;;;;;;;11.80;3.60;;;;;;;;;;4943028;28;20039;-44
2023/06/10 05:45:52;;;;;;;14.30;4.47;;;;;;;;;;4940184;28;20039;-44
2023/06/10 05:48:19;;;;;;;10.93;5.30;;;;;;;;;;4939238;28;20065;-46
2023/06/10 05:50:48;;;;;;;11.02;4.72;;;;;;;;;;4946668;28;20039;-44
2023/06/10 05:53:14;;;;;;;14.65;5.88;;;;;;;;;;4940807;28;20036;-48
2023/06/10 05:55:44;;;;;;;10.68;5.80;;;;;;;;;;4942368;28;20192;-44
2023/06/10 05:58:12;;;;;;;21.02;6.65;;;;;;;;;;4941830;28;20097;-48
2023/06/10 06:00:37;;;;;;;13.68;6.43;;;;;;;;;;4939067;28;20404;-44
2023/06/10 06:03:03;;;;;;;15.98;6.50;;;;;;;;;;4944389;28;20046;-47
2023/06/10 06:05:34;;;;;;;11.32;6.15;;;;;;;;;;4944281;28;20078;-44
2023/06/10 06:08:00;;;;;;;13.43;5.68;;;;;;;;;;4940052;28;20042;-49
2023/06/10 06:10:25;;;;;;;15.00;6.30;;;;;;;;;;4944050;28;20023;-50
2023/06/10 06:12:51;;;;;;;17.52;6.18;;;;;;;;;;4940399;28;20042;-52
2023/06/10 06:15:16;;;;;;;19.83;7.22;;;;;;;;;;4943094;28;21993;-44
2023/06/10 06:17:41;;;;;;;12.65;6.20;;;;;;;;;;4940507;28;20075;-46
2023/06/10 06:20:07;;;;;;;12.65;6.00;;;;;;;;;;4945758;28;20451;-44
2023/06/10 06:22:33;;;;;;;11.98;5.68;;;;;;;;;;4946097;28;20035;-45
2023/06/10 06:24:58;;;;;;;10.35;5.95;;;;;;;;;;4942320;28;20027;-44
2023/06/10 06:27:23;;;;;;;18.20;5.93;;;;;;;;;;4944633;28;20031;-48
2023/06/10 06:29:50;;;;;;;10.18;5.70;;;;;;;;;;4946443;28;20023;-47
2023/06/10 06:32:15;;;;;;;15.90;6.40;;;;;;;;;;4943689;28;20393;-43
2023/06/10 06:34:41;;;;;;;18.25;6.53;;;;;;;;;;4943000;28;20031;-43
2023/06/10 06:37:06;;;;;;;23.33;8.23;;;;;;;;;;4944526;28;20827;-44
2023/06/10 06:39:32;;;;;;;10.15;5.85;;;;;;;;;;4943670;28;20035;-45
2023/06/10 06:41:57;;;;;;;13.05;6.78;;;;;;;;;;4938116;28;20086;-43
2023/06/10 06:44:22;;;;;;;10.82;6.40;;;;;;;;;;4947648;28;20023;-43
2023/06/10 06:46:48;;;;;;;12.13;7.13;;;;;;;;;;4940325;28;20040;-45
2023/06/10 06:49:13;;;;;;;8.68;5.68;;;;;;;;;;4947966;28;20499;-48
2023/06/10 06:51:39;;;;;;;9.45;6.22;;;;;;;;;;4940514;28;20061;-44
2023/06/10 06:54:05;;;;;;;12.18;6.88;;;;;;;;;;4942417;28;20030;-44
2023/06/10 06:56:31;;;;;;;8.93;6.38;;;;;;;;;;4946120;28;20038;-46
2023/06/10 06:58:56;;;;;;;11.48;6.00;;;;;;;;;;4945614;28;20031;-47
2023/06/10 07:01:21;;;;;;;12.05;6.60;;;;;;;;;;4945030;28;20046;-50
2023/06/10 07:03:47;;;;;;;10.48;5.50;;;;;;;;;;4944446;28;20067;-45
2023/06/10 07:06:13;;;;;;;10.63;5.93;;;;;;;;;;4941781;28;20038;-45
2023/06/10 07:08:38;;;;;;;10.57;5.70;;;;;;;;;;4944378;28;20090;-43
2023/06/10 07:11:03;;;;;;;7.07;5.43;;;;;;;;;;4943633;28;20038;-46
2023/06/10 07:13:29;;;;;;;10.20;5.35;;;;;;;;;;4939606;28;20037;-44
2023/06/10 07:15:54;;;;;;;9.15;5.50;;;;;;;;;;4943342;28;20039;-46
2023/06/10 07:18:20;;;;;;;7.43;4.95;;;;;;;;;;4944873;28;20039;-45
2023/06/10 07:20:45;;;;;;;10.43;5.75;;;;;;;;;;4940824;28;20062;-48
2023/06/10 07:23:10;;;;;;;12.27;5.10;;;;;;;;;;4941921;28;20472;-45
2023/06/10 07:25:36;;;;;;;13.38;5.35;;;;;;;;;;4939577;28;20043;-44
2023/06/10 07:28:01;;;;;;;13.60;5.15;;;;;;;;;;4936829;28;20078;-51
2023/06/10 07:30:28;;;;;;;5.20;4.22;;;;;;;;;;4940500;28;20047;-47
2023/06/10 07:32:53;;;;;;;9.55;5.10;;;;;;;;;;4934105;28;20037;-44
2023/06/10 07:35:19;;;;;;;12.55;4.95;;;;;;;;;;4941436;28;20593;-46
2023/06/10 07:37:45;;;;;;;10.73;5.57;;;;;;;;;;4938325;28;20111;-49
2023/06/10 07:40:10;;;;;;;12.05;4.85;;;;;;;;;;4939749;28;20902;-46
2023/06/10 07:42:36;;;;;;;9.95;5.03;;;;;;;;;;4940657;28;20114;-47
2023/06/10 07:45:03;;;;;;;14.30;5.38;;;;;;;;;;4942960;28;20090;-46
2023/06/10 07:47:29;;;;;;;11.80;5.35;;;;;;;;;;4939301;28;20481;-48
2023/06/10 07:49:54;;;;;;;11.63;5.55;;;;;;;;;;4940816;28;20086;-45
2023/06/10 07:52:20;;;;;;;11.45;4.55;;;;;;;;;;4937668;28;20436;-49
2023/06/10 07:54:45;;;;;;;8.77;4.57;;;;;;;;;;4941698;28;20488;-44
2023/06/10 07:57:10;;;;;;;8.60;4.65;;;;;;;;;;4942001;28;20117;-45
2023/06/10 07:59:36;;;;;;;6.20;4.25;;;;;;;;;;4939087;28;20058;-49
2023/06/10 08:02:01;;;;;;;5.20;4.15;;;;;;;;;;4936591;28;20150;-50
2023/06/10 08:04:27;;;;;;;10.98;3.72;;;;;;;;;;4940074;28;20531;-49
2023/06/10 08:06:52;;;;;;;5.90;3.90;;;;;;;;;;4941482;28;20381;-47
2023/06/10 08:09:18;;;;;;;20.70;4.38;;;;;;;;;;4943931;28;20506;-45
2023/06/10 08:11:44;;;;;;;15.35;4.50;;;;;;;;;;4940974;28;20102;-53
2023/06/10 08:14:09;;;;;;;10.65;3.70;;;;;;;;;;4937354;28;20023;-51
2023/06/10 08:16:34;;;;;;;6.65;4.07;;;;;;;;;;4938352;28;20028;-48
2023/06/10 08:19:00;;;;;;;10.93;4.82;;;;;;;;;;4940428;28;20031;-48
2023/06/10 08:21:25;;;;;;;7.93;3.78;;;;;;;;;;4939949;28;20066;-49
2023/06/10 08:23:54;;;;;;;9.25;4.50;;;;;;;;;;4943659;28;20031;-46
2023/06/10 08:26:19;;;;;;;10.90;4.00;;;;;;;;;;4937109;28;20035;-47
2023/06/10 08:28:45;;;;;;;8.25;4.50;;;;;;;;;;4941430;28;20035;-48
2023/06/10 08:31:10;;;;;;;10.00;4.57;;;;;;;;;;4943409;28;20039;-48
2023/06/10 08:33:36;;;;;;;11.48;4.63;;;;;;;;;;4941648;28;20027;-46
2023/06/10 08:36:01;;;;;;;13.30;4.82;;;;;;;;;;4941371;28;20046;-43
2023/06/10 08:38:27;;;;;;;10.50;4.43;;;;;;;;;;4943931;28;20047;-45
2023/06/10 08:40:56;;;;;;;15.57;5.20;;;;;;;;;;4945888;28;20036;-45
2023/06/10 08:43:21;;;;;;;14.02;4.85;;;;;;;;;;4946290;28;20476;-47
2023/06/10 08:45:49;;;;;;;9.95;4.85;;;;;;;;;;4946265;28;20118;-50
2023/06/10 08:48:16;;;;;;;11.13;5.25;;;;;;;;;;4944496;28;20137;-50
2023/06/10 08:50:42;;;;;;;9.68;4.82;;;;;;;;;;4943966;28;20047;-50
2023/06/10 08:53:07;;;;;;;9.07;5.25;;;;;;;;;;4947172;28;20512;-53
2023/06/10 08:55:36;;;;;;;10.18;5.65;;;;;;;;;;4945807;28;20023;-53
2023/06/10 08:58:02;;;;;;;15.90;7.53;;;;;;;;;;4946051;28;20123;-49
2023/06/10 09:00:29;;;;;;;9.95;6.57;;;;;;;;;;4946169;28;20035;-50
2023/06/10 09:02:56;;;;;;;15.82;6.60;;;;;;;;;;4944712;28;20043;-45
2023/06/10 09:05:22;;;;;;;13.15;6.53;;;;;;;;;;4945788;28;20388;-47
2023/06/10 09:07:52;;;;;;;9.38;6.85;;;;;;;;;;4944047;28;20404;-49
2023/06/10 09:10:18;;;;;;;10.07;5.90;;;;;;;;;;4947007;28;20036;-47
2023/06/10 09:12:44;;;;;;;9.07;6.88;;;;;;;;;;4942647;28;20054;-46
2023/06/10 09:15:11;;;;;;;12.50;6.43;;;;;;;;;;4943360;28;20036;-48
2023/06/10 09:17:37;;;;;;;9.73;5.95;;;;;;;;;;4942971;28;20476;-47
2023/06/10 09:20:03;;;;;;;10.80;5.47;;;;;;;;;;4942447;28;20031;-48
2023/06/10 09:22:29;;;;;;;8.10;5.38;;;;;;;;;;4945511;28;20077;-50
2023/06/10 09:25:08;;;;;;;9.50;4.95;;;;;;;;;;4940319;28;20023;-49
2023/06/10 09:27:56;;;;;;;12.93;5.88;;;;;;;;;;4940978;28;20047;-46
2023/06/10 09:30:26;;;;;;;10.60;5.22;;;;;;;;;;4941478;28;20039;-50
2023/06/10 09:32:53;;;;;;;12.82;5.80;;;;;;;;;;4945478;28;20046;-52
2023/06/10 09:35:19;;;;;;;11.23;5.68;;;;;;;;;;4947341;28;20045;-46
2023/06/10 09:37:44;;;;;;;5.70;4.80;;;;;;;;;;4946498;28;20492;-47
2023/06/10 09:40:10;;;;;;;10.07;5.68;;;;;;;;;;4946316;28;20035;-48
2023/06/10 09:42:39;;;;;;;10.75;5.70;;;;;;;;;;4946478;28;20050;-51
2023/06/10 09:45:06;;;;;;;10.60;6.72;;;;;;;;;;4945257;28;20581;-50
2023/06/10 09:47:31;;;;;;;9.85;6.35;;;;;;;;;;4941615;28;20488;-49
2023/06/10 09:49:57;;;;;;;9.95;6.25;;;;;;;;;;4947931;28;20043;-50
2023/06/10 09:52:26;;;;;;;9.15;6.45;;;;;;;;;;4945114;28;20086;-49
2023/06/10 09:54:53;;;;;;;9.43;6.70;;;;;;;;;;4942276;28;20028;-48
2023/06/10 09:57:20;;;;;;;8.25;6.07;;;;;;;;;;4942441;28;20043;-51
2023/06/10 09:59:46;;;;;;;14.23;6.43;;;;;;;;;;4945215;28;20051;-46
2023/06/10 10:02:17;;;;;;;10.93;6.53;;;;;;;;;;4942642;28;20055;-48
2023/06/10 10:04:43;;;;;;;11.43;5.80;;;;;;;;;;4947878;28;20035;-51
2023/06/10 10:07:10;;;;;;;8.18;4.93;;;;;;;;;;4943360;28;20034;-51
2023/06/10 10:09:40;;;;;;;7.15;4.15;;;;;;;;;;4942370;28;20110;-49
2023/06/10 10:12:15;;;;;;;12.27;6.90;;;;;;;;;;4940160;28;20548;-46
2023/06/10 10:14:46;;;;;;;7.22;4.65;;;;;;;;;;4941552;28;20035;-47
2023/06/10 10:17:13;;;;;;;6.55;4.82;;;;;;;;;;4942225;28;20035;-45
2023/06/10 10:19:57;;;;;;;4.85;4.30;;;;;;;;;;4946000;28;20110;-51
2023/06/10 10:22:29;;;;;;;6.70;4.55;;;;;;;;;;4941517;28;20123;-48
2023/06/10 10:25:01;;;;;;;7.47;4.63;;;;;;;;;;4942843;28;20035;-52
2023/06/10 10:27:27;;;;;;;;;;;;;;;;;;4944971;28;20390;-46
2023/06/10 10:29:54;;;;;;;12.60;4.88;;;;;;;;;;4943234;28;19918;-51
2023/06/10 10:32:26;;;;;;;8.95;5.25;;;;;;;;;;4944567;28;20046;-50
2023/06/10 10:35:18;;;;;;;11.25;5.65;;;;;;;;;;4944545;28;20074;-49
2023/06/10 10:37:43;;;;;;;8.75;5.45;;;;;;;;;;4942126;28;20043;-49
2023/06/10 10:40:10;;;;;;;15.05;5.28;;;;;;;;;;4945687;28;20027;-49
2023/06/10 10:42:36;;;;;;;11.82;5.75;;;;;;;;;;4943169;28;20059;-47
2023/06/10 10:45:02;;;;;;;11.20;6.28;;;;;;;;;;4946517;28;20023;-52
2023/06/10 10:47:30;;;;;;;10.32;6.00;;;;;;;;;;4944931;28;20043;-49
2023/06/10 10:49:59;;;;;;;8.70;5.63;;;;;;;;;;4940317;28;20039;-50
2023/06/10 10:52:24;;;;;;;8.07;5.57;;;;;;;;;;4945119;28;20042;-51
2023/06/10 10:54:53;;;;;;;10.25;5.32;;;;;;;;;;4942045;28;20032;-51
2023/06/10 10:57:20;;;;;;;5.75;5.03;;;;;;;;;;4942591;28;20039;-49
2023/06/10 10:59:55;;;;;;;12.00;5.60;;;;;;;;;;4926498;28;20062;-46
2023/06/10 11:02:35;;;;;;;12.63;5.15;;;;;;;;;;4939128;28;20063;-51
2023/06/10 11:05:02;;;;;;;11.98;5.68;;;;;;;;;;4942697;28;20461;-46
2023/06/10 11:07:30;;;;;;;15.48;6.68;;;;;;;;;;4943449;28;20515;-47
2023/06/10 11:10:12;;;;;;;8.43;6.95;;;;;;;;;;4947662;28;20111;-46
2023/06/10 11:12:40;;;;;;;9.15;5.82;;;;;;;;;;4942886;28;20526;-46
2023/06/10 11:15:06;;;;;;;10.05;5.95;;;;;;;;;;4940960;28;20039;-48
2023/06/10 11:17:31;;;;;;;15.93;6.90;;;;;;;;;;4943006;28;20040;-52
2023/06/10 11:19:58;;;;;;;20.17;11.30;;;;;;;;;;4942344;28;20031;-46
2023/06/10 11:22:24;;;;;;;7.30;4.95;;;;;;;;;;4940909;28;20062;-49
2023/06/10 11:24:52;;;;;;;7.05;4.78;;;;;;;;;;4943819;28;20468;-49
2023/06/10 11:27:22;;;;;;;10.13;4.65;;;;;;;;;;4938572;28;20058;-51
2023/06/10 11:30:07;;;;;;;9.65;4.30;;;;;;;;;;4944280;28;20106;-51
2023/06/10 11:32:34;;;;;;;10.38;5.15;;;;;;;;;;4942487;28;20044;-45
2023/06/10 11:35:00;;;;;;;8.18;4.63;;;;;;;;;;4943474;28;20019;-49
2023/06/10 11:37:25;;;;;;;7.13;4.72;;;;;;;;;;4945041;28;20043;-50
2023/06/10 11:39:54;;;;;;;8.07;3.80;;;;;;;;;;4944209;28;20049;-48
2023/06/10 11:42:21;;;;;;;5.35;4.28;;;;;;;;;;4940570;28;20042;-45
2023/06/10 11:44:51;;;;;;;8.70;5.32;;;;;;;;;;4940314;28;20036;-51
2023/06/10 11:47:18;;;;;;;11.20;4.50;;;;;;;;;;4942814;28;20051;-49
2023/06/10 11:49:44;;;;;;;6.07;4.22;;;;;;;;;;4943262;28;20023;-53
2023/06/10 11:52:10;;;;;;;6.13;4.00;;;;;;;;;;4942959;28;20551;-50
2023/06/10 11:54:36;;;;;;;7.45;4.00;;;;;;;;;;4943538;28;20382;-46
2023/06/10 11:57:03;;;;;;;7.85;3.85;;;;;;;;;;4944329;28;20035;-50
2023/06/10 11:59:28;;;;;;;4.47;4.00;;;;;;;;;;4945237;28;20118;-47
2023/06/10 12:01:54;;;;;;;10.02;4.70;;;;;;;;;;4943714;28;20265;-49
2023/06/10 12:04:19;;;;;;;6.78;4.07;;;;;;;;;;4947152;28;20019;-50
2023/06/10 12:06:47;;;;;;;10.25;4.72;;;;;;;;;;4943306;28;20596;-47
2023/06/10 12:09:19;;;;;;;11.00;5.00;;;;;;;;;;4947035;28;20039;-51
2023/06/10 12:11:45;;;;;;;5.47;3.88;;;;;;;;;;4946655;28;20592;-53
2023/06/10 12:14:10;;;;;;;8.68;4.97;;;;;;;;;;4949492;28;20054;-51
2023/06/10 12:16:36;;;;;;;8.07;4.97;;;;;;;;;;4947157;28;20125;-52
2023/06/10 12:19:05;;;;;;;6.60;4.70;;;;;;;;;;4943887;28;20031;-48
2023/06/10 12:21:32;;;;;;;9.15;5.63;;;;;;;;;;4943518;28;20074;-47
2023/06/10 12:24:10;;;;;;;9.48;6.45;;;;;;;;;;4945180;28;20063;-51
2023/06/10 12:26:44;;;;;;;8.52;6.22;;;;;;;;;;4941662;28;20052;-48
2023/06/10 12:29:24;;;;;;;12.77;6.68;;;;;;;;;;4946215;28;20062;-50
2023/06/10 12:32:05;;;;;;;16.98;6.38;;;;;;;;;;4941026;28;20408;-49
2023/06/10 12:34:38;;;;;;;10.93;6.28;;;;;;;;;;4945710;28;20047;-47
2023/06/10 12:37:13;;;;;;;15.98;6.28;;;;;;;;;;4943099;28;20392;-47
2023/06/10 12:39:39;;;;;;;13.52;6.32;;;;;;;;;;4944688;28;20046;-49
2023/06/10 12:42:08;;;;;;;11.95;5.55;;;;;;;;;;4947049;28;20079;-51
2023/06/10 12:44:35;;;;;;;9.30;5.28;;;;;;;;;;4946081;28;20396;-49
2023/06/10 12:47:08;;;;;;;9.57;4.90;;;;;;;;;;4940777;28;20512;-51
2023/06/10 12:49:35;;;;;;;8.07;4.60;;;;;;;;;;4938454;28;20028;-52
2023/06/10 12:52:01;;;;;;;8.88;5.13;;;;;;;;;;4948018;28;20078;-47
2023/06/10 12:54:26;;;;;;;8.60;4.40;;;;;;;;;;4942845;28;20023;-47
2023/06/10 12:56:52;;;;;;;10.10;4.75;;;;;;;;;;4943130;28;20051;-46
2023/06/10 12:59:19;;;;;;;10.55;4.50;;;;;;;;;;4942647;28;20031;-52
2023/06/10 13:01:50;;;;;;;10.00;3.88;;;;;;;;;;4943818;28;20039;-52
2023/06/10 13:04:16;;;;;;;14.93;4.43;;;;;;;;;;4946901;28;20031;-52
2023/06/10 13:06:41;;;;;;;13.20;4.60;;;;;;;;;;4942911;28;20047;-48
2023/06/10 13:09:06;;;;;;;10.38;4.53;;;;;;;;;;4941629;28;20039;-48
2023/06/10 13:11:32;;;;;;;11.30;4.72;;;;;;;;;;4948218;28;20125;-44
2023/06/10 13:13:57;;;;;;;9.07;4.88;;;;;;;;;;4942841;28;20039;-50
2023/06/10 13:16:23;;;;;;;7.57;4.32;;;;;;;;;;4946467;28;20113;-44
2023/06/10 13:18:48;;;;;;;9.63;4.32;;;;;;;;;;4942298;28;20572;-48
2023/06/10 13:21:13;;;;;;;11.07;4.30;;;;;;;;;;4942865;28;20094;-50
2023/06/10 13:23:39;;;;;;;8.65;4.30;;;;;;;;;;4923716;29;20086;-50
2023/06/10 13:26:04;;;;;;;11.48;4.40;;;;;;;;;;4944833;28;20081;-49
2023/06/10 13:28:30;;;;;;;11.95;4.95;;;;;;;;;;4944335;28;20028;-48
2023/06/10 13:30:56;;;;;;;11.40;4.72;;;;;;;;;;4941741;28;20031;-50
2023/06/10 13:33:21;;;;;;;10.45;4.40;;;;;;;;;;4941768;28;20052;-50
2023/06/10 13:35:46;;;;;;;7.72;3.92;;;;;;;;;;4942914;28;20034;-47
2023/06/10 13:38:12;;;;;;;8.82;4.28;;;;;;;;;;4942913;28;20043;-49
2023/06/10 13:40:37;;;;;;;9.10;4.47;;;;;;;;;;4945817;28;20064;-51
2023/06/10 13:43:03;;;;;;;13.32;4.35;;;;;;;;;;4943445;28;20036;-47
2023/06/10 13:45:28;;;;;;;8.45;4.38;;;;;;;;;;4942722;28;20073;-48
2023/06/10 13:47:53;;;;;;;8.63;3.65;;;;;;;;;;4943023;28;20504;-52
2023/06/10 13:50:19;;;;;;;8.32;4.15;;;;;;;;;;4943641;28;20445;-44
2023/06/10 13:52:44;;;;;;;6.40;3.80;;;;;;;;;;4944938;28;20118;-53
2023/06/10 13:55:10;;;;;;;7.93;4.20;;;;;;;;;;4939572;28;20035;-50
2023/06/10 13:57:35;;;;;;;9.65;4.43;;;;;;;;;;4925846;29;20077;-50
2023/06/10 14:00:01;;;;;;;8.05;3.88;;;;;;;;;;4936085;28;20067;-46
2023/06/10 14:02:27;;;;;;;5.68;2.97;;;;;;;;;;4939905;28;20098;-49
2023/06/10 14:04:52;;;;;;;8.57;4.05;;;;;;;;;;4945245;28;20039;-47
2023/06/10 14:07:18;;;;;;;11.57;3.92;;;;;;;;;;4941186;28;20087;-48
2023/06/10 14:09:43;;;;;;;11.43;3.45;;;;;;;;;;4947164;28;20039;-50
2023/06/10 14:12:09;;;;;;;10.98;4.10;;;;;;;;;;4940268;28;20047;-51
2023/06/10 14:14:36;;;;;;;7.80;3.78;;;;;;;;;;4940044;28;20031;-53
2023/06/10 14:17:01;;;;;;;12.10;3.92;;;;;;;;;;4946079;28;20555;-52
2023/06/10 14:19:27;;;;;;;8.25;4.10;;;;;;;;;;4943773;28;20127;-53
2023/06/10 14:21:53;;;;;;;8.35;3.65;;;;;;;;;;4943651;28;20035;-49
2023/06/10 14:24:19;;;;;;;8.65;3.80;;;;;;;;;;4925582;28;20054;-47
2023/06/10 14:26:44;;;;;;;6.82;3.58;;;;;;;;;;4941546;28;20539;-47
2023/06/10 14:29:09;;;;;;;8.20;3.28;;;;;;;;;;4944706;28;20035;-52
2023/06/10 14:31:35;;;;;;;16.55;4.22;;;;;;;;;;4940571;28;20574;-52
2023/06/10 14:34:00;;;;;;;8.15;3.45;;;;;;;;;;4946468;28;20031;-53
2023/06/10 14:36:26;;;;;;;13.15;3.92;;;;;;;;;;4945406;28;20051;-48